sensor_id;sensor_type;location;lat;lon;timestamp;pressure;altitude;pressure_sealevel;temperature;humidity
64698;BME280;51124;53.394;-6.294;2023-12-04T00:01:15;99616.00;;;16.99;10.26
64698;BME280;51124;53.394;-6.294;2023-12-04T00:03:43;99613.15;;;17.25;9.97
64698;BME280;51124;53.394;-6.294;2023-12-04T00:06:11;99614.66;;;17.85;9.81
64698;BME280;51124;53.394;-6.294;2023-12-04T00:08:38;99612.60;;;17.96;9.75
64698;BME280;51124;53.394;-6.294;2023-12-04T00:11:06;99601.51;;;17.94;9.71
64698;BME280;51124;53.394;-6.294;2023-12-04T00:13:34;99600.35;;;18.19;9.70
64698;BME280;51124;53.394;-6.294;2023-12-04T00:16:01;99598.81;;;18.13;9.69
64698;BME280;51124;53.394;-6.294;2023-12-04T00:18:29;99593.61;;;17.33;9.54
64698;BME280;51124;53.394;-6.294;2023-12-04T00:20:56;99594.12;;;17.36;9.55
64698;BME280;51124;53.394;-6.294;2023-12-04T00:23:23;99587.97;;;16.21;9.80
64698;BME280;51124;53.394;-6.294;2023-12-04T00:25:51;99592.57;;;16.57;9.87
64698;BME280;51124;53.394;-6.294;2023-12-04T00:28:18;99587.12;;;17.50;9.35
64698;BME280;51124;53.394;-6.294;2023-12-04T00:30:46;99583.55;;;17.81;9.33
64698;BME280;51124;53.394;-6.294;2023-12-04T00:33:14;99574.95;;;18.05;9.19
64698;BME280;51124;53.394;-6.294;2023-12-04T00:35:41;99574.69;;;17.26;9.49
64698;BME280;51124;53.394;-6.294;2023-12-04T00:38:08;99570.93;;;17.18;9.60
64698;BME280;51124;53.394;-6.294;2023-12-04T00:40:35;99564.55;;;17.53;9.51
64698;BME280;51124;53.394;-6.294;2023-12-04T00:43:03;99558.67;;;15.95;9.73
64698;BME280;51124;53.394;-6.294;2023-12-04T00:45:30;99560.21;;;17.32;9.51
64698;BME280;51124;53.394;-6.294;2023-12-04T00:47:57;99556.37;;;16.19;9.65
64698;BME280;51124;53.394;-6.294;2023-12-04T00:50:24;99552.71;;;17.07;9.53
64698;BME280;51124;53.394;-6.294;2023-12-04T00:52:52;99559.01;;;16.21;9.93
64698;BME280;51124;53.394;-6.294;2023-12-04T00:55:19;99553.37;;;17.05;9.48
64698;BME280;51124;53.394;-6.294;2023-12-04T00:57:46;99553.83;;;17.05;9.55
64698;BME280;51124;53.394;-6.294;2023-12-04T01:00:14;99547.53;;;15.93;9.79
64698;BME280;51124;53.394;-6.294;2023-12-04T01:02:42;99545.86;;;15.81;9.77
64698;BME280;51124;53.394;-6.294;2023-12-04T01:05:09;99549.89;;;17.78;9.48
64698;BME280;51124;53.394;-6.294;2023-12-04T01:07:36;99542.43;;;16.88;9.67
64698;BME280;51124;53.394;-6.294;2023-12-04T01:10:05;99545.78;;;15.04;10.04
64698;BME280;51124;53.394;-6.294;2023-12-04T01:12:33;99538.44;;;17.53;9.54
64698;BME280;51124;53.394;-6.294;2023-12-04T01:15:00;99529.04;;;17.67;9.49
64698;BME280;51124;53.394;-6.294;2023-12-04T01:17:27;99532.33;;;16.32;9.67
64698;BME280;51124;53.394;-6.294;2023-12-04T01:19:55;99529.29;;;17.13;9.74
64698;BME280;51124;53.394;-6.294;2023-12-04T01:22:22;99534.98;;;16.10;9.75
64698;BME280;51124;53.394;-6.294;2023-12-04T01:24:49;99524.02;;;18.67;9.40
64698;BME280;51124;53.394;-6.294;2023-12-04T01:27:16;99522.19;;;16.55;9.77
64698;BME280;51124;53.394;-6.294;2023-12-04T01:29:44;99521.17;;;16.16;9.80
64698;BME280;51124;53.394;-6.294;2023-12-04T01:32:11;99513.89;;;15.96;9.79
64698;BME280;51124;53.394;-6.294;2023-12-04T01:34:39;99509.62;;;17.12;9.57
64698;BME280;51124;53.394;-6.294;2023-12-04T01:37:06;99506.40;;;16.94;9.46
64698;BME280;51124;53.394;-6.294;2023-12-04T01:39:33;99505.77;;;15.82;9.95
64698;BME280;51124;53.394;-6.294;2023-12-04T01:42:00;99505.53;;;19.58;9.79
64698;BME280;51124;53.394;-6.294;2023-12-04T01:44:28;99513.46;;;17.43;10.39
64698;BME280;51124;53.394;-6.294;2023-12-04T01:46:55;99508.01;;;16.79;10.31
64698;BME280;51124;53.394;-6.294;2023-12-04T01:49:23;99509.51;;;20.48;10.56
64698;BME280;51124;53.394;-6.294;2023-12-04T01:51:50;99506.43;;;20.19;10.69
64698;BME280;51124;53.394;-6.294;2023-12-04T01:54:18;99508.64;;;19.76;11.04
64698;BME280;51124;53.394;-6.294;2023-12-04T01:56:46;99504.90;;;19.14;11.55
64698;BME280;51124;53.394;-6.294;2023-12-04T01:59:14;99504.31;;;19.12;11.71
64698;BME280;51124;53.394;-6.294;2023-12-04T02:01:42;99505.80;;;19.05;11.74
64698;BME280;51124;53.394;-6.294;2023-12-04T02:04:09;99501.48;;;18.41;11.99
64698;BME280;51124;53.394;-6.294;2023-12-04T02:06:36;99504.47;;;19.35;11.69
64698;BME280;51124;53.394;-6.294;2023-12-04T02:09:04;99502.00;;;18.61;12.30
64698;BME280;51124;53.394;-6.294;2023-12-04T02:11:32;99500.11;;;18.31;12.24
64698;BME280;51124;53.394;-6.294;2023-12-04T02:13:59;99501.81;;;18.71;12.08
64698;BME280;51124;53.394;-6.294;2023-12-04T02:16:29;99503.38;;;19.44;11.76
64698;BME280;51124;53.394;-6.294;2023-12-04T02:18:58;99503.31;;;19.32;11.80
64698;BME280;51124;53.394;-6.294;2023-12-04T02:21:25;99510.22;;;18.25;12.26
64698;BME280;51124;53.394;-6.294;2023-12-04T02:23:54;99503.87;;;18.93;12.07
64698;BME280;51124;53.394;-6.294;2023-12-04T02:26:26;99499.35;;;18.29;12.26
64698;BME280;51124;53.394;-6.294;2023-12-04T02:28:58;99502.50;;;19.07;11.98
64698;BME280;51124;53.394;-6.294;2023-12-04T02:31:27;99505.20;;;19.00;11.74
64698;BME280;51124;53.394;-6.294;2023-12-04T02:33:57;99507.46;;;19.10;12.09
64698;BME280;51124;53.394;-6.294;2023-12-04T02:36:27;99509.39;;;17.90;12.33
64698;BME280;51124;53.394;-6.294;2023-12-04T02:38:56;99503.49;;;17.91;11.99
64698;BME280;51124;53.394;-6.294;2023-12-04T02:41:24;99500.23;;;17.62;11.14
64698;BME280;51124;53.394;-6.294;2023-12-04T02:43:51;99497.46;;;15.83;11.23
64698;BME280;51124;53.394;-6.294;2023-12-04T02:46:19;99494.72;;;17.42;10.54
64698;BME280;51124;53.394;-6.294;2023-12-04T02:48:46;99499.21;;;16.53;10.65
64698;BME280;51124;53.394;-6.294;2023-12-04T02:51:13;99496.97;;;16.10;10.57
64698;BME280;51124;53.394;-6.294;2023-12-04T02:53:40;99492.61;;;16.72;10.17
64698;BME280;51124;53.394;-6.294;2023-12-04T02:56:09;99488.86;;;16.39;10.11
64698;BME280;51124;53.394;-6.294;2023-12-04T02:58:36;99483.00;;;17.06;9.82
64698;BME280;51124;53.394;-6.294;2023-12-04T03:01:03;99477.91;;;17.56;9.66
64698;BME280;51124;53.394;-6.294;2023-12-04T03:03:31;99476.24;;;17.15;9.67
64698;BME280;51124;53.394;-6.294;2023-12-04T03:05:58;99476.61;;;16.61;9.75
64698;BME280;51124;53.394;-6.294;2023-12-04T03:08:25;99480.11;;;16.39;9.92
64698;BME280;51124;53.394;-6.294;2023-12-04T03:10:52;99480.24;;;16.52;9.90
64698;BME280;51124;53.394;-6.294;2023-12-04T03:13:20;99476.48;;;17.25;9.53
64698;BME280;51124;53.394;-6.294;2023-12-04T03:15:47;99481.93;;;16.00;10.03
64698;BME280;51124;53.394;-6.294;2023-12-04T03:18:14;99478.26;;;15.93;9.88
64698;BME280;51124;53.394;-6.294;2023-12-04T03:20:42;99484.12;;;17.29;9.44
64698;BME280;51124;53.394;-6.294;2023-12-04T03:23:09;99481.47;;;16.83;9.28
64698;BME280;51124;53.394;-6.294;2023-12-04T03:25:36;99478.92;;;16.73;9.68
64698;BME280;51124;53.394;-6.294;2023-12-04T03:28:03;99479.24;;;16.51;9.70
64698;BME280;51124;53.394;-6.294;2023-12-04T03:30:31;99481.85;;;17.25;9.43
64698;BME280;51124;53.394;-6.294;2023-12-04T03:32:58;99475.42;;;17.39;9.37
64698;BME280;51124;53.394;-6.294;2023-12-04T03:35:26;99478.34;;;17.02;9.36
64698;BME280;51124;53.394;-6.294;2023-12-04T03:37:53;99473.70;;;16.29;9.54
64698;BME280;51124;53.394;-6.294;2023-12-04T03:40:20;99471.55;;;15.92;9.60
64698;BME280;51124;53.394;-6.294;2023-12-04T03:42:47;99476.71;;;16.27;9.69
64698;BME280;51124;53.394;-6.294;2023-12-04T03:45:15;99476.61;;;16.35;9.60
64698;BME280;51124;53.394;-6.294;2023-12-04T03:47:42;99468.50;;;16.37;9.31
64698;BME280;51124;53.394;-6.294;2023-12-04T03:50:09;99465.05;;;17.44;9.16
64698;BME280;51124;53.394;-6.294;2023-12-04T03:52:36;99471.62;;;15.76;9.51
64698;BME280;51124;53.394;-6.294;2023-12-04T03:55:04;99464.16;;;16.53;9.37
64698;BME280;51124;53.394;-6.294;2023-12-04T03:57:32;99464.58;;;16.49;9.37
64698;BME280;51124;53.394;-6.294;2023-12-04T03:59:59;99466.13;;;15.46;9.73
64698;BME280;51124;53.394;-6.294;2023-12-04T04:02:27;99469.58;;;16.27;9.43
64698;BME280;51124;53.394;-6.294;2023-12-04T04:04:55;99458.42;;;17.41;9.11
64698;BME280;51124;53.394;-6.294;2023-12-04T04:07:22;99456.49;;;16.91;9.14
64698;BME280;51124;53.394;-6.294;2023-12-04T04:09:49;99453.76;;;17.01;9.20
64698;BME280;51124;53.394;-6.294;2023-12-04T04:12:17;99450.68;;;15.70;9.38
64698;BME280;51124;53.394;-6.294;2023-12-04T04:14:44;99449.33;;;16.46;9.32
64698;BME280;51124;53.394;-6.294;2023-12-04T04:17:11;99448.08;;;15.81;9.72
64698;BME280;51124;53.394;-6.294;2023-12-04T04:19:39;99443.77;;;15.85;9.75
64698;BME280;51124;53.394;-6.294;2023-12-04T04:22:06;99451.86;;;16.08;9.67
64698;BME280;51124;53.394;-6.294;2023-12-04T04:24:33;99444.17;;;17.60;9.11
64698;BME280;51124;53.394;-6.294;2023-12-04T04:27:00;99450.34;;;15.83;9.51
64698;BME280;51124;53.394;-6.294;2023-12-04T04:29:27;99446.79;;;16.12;9.38
64698;BME280;51124;53.394;-6.294;2023-12-04T04:31:55;99443.27;;;16.67;9.35
64698;BME280;51124;53.394;-6.294;2023-12-04T04:34:23;99446.95;;;19.01;9.42
64698;BME280;51124;53.394;-6.294;2023-12-04T04:36:50;99458.07;;;18.07;9.95
64698;BME280;51124;53.394;-6.294;2023-12-04T04:39:17;99452.13;;;17.54;9.81
64698;BME280;51124;53.394;-6.294;2023-12-04T04:41:46;99452.39;;;19.25;10.34
64698;BME280;51124;53.394;-6.294;2023-12-04T04:44:13;99456.52;;;19.98;10.54
64698;BME280;51124;53.394;-6.294;2023-12-04T04:46:41;99455.32;;;18.65;11.08
64698;BME280;51124;53.394;-6.294;2023-12-04T04:49:08;99456.26;;;18.98;11.02
64698;BME280;51124;53.394;-6.294;2023-12-04T04:51:36;99462.49;;;17.91;11.65
64698;BME280;51124;53.394;-6.294;2023-12-04T04:54:03;99458.68;;;19.69;11.33
64698;BME280;51124;53.394;-6.294;2023-12-04T04:56:31;99462.26;;;19.29;11.41
64698;BME280;51124;53.394;-6.294;2023-12-04T04:58:58;99464.22;;;18.69;11.64
64698;BME280;51124;53.394;-6.294;2023-12-04T05:01:26;99464.89;;;19.07;11.72
64698;BME280;51124;53.394;-6.294;2023-12-04T05:03:53;99473.30;;;18.78;11.77
64698;BME280;51124;53.394;-6.294;2023-12-04T05:06:21;99468.98;;;19.90;11.47
64698;BME280;51124;53.394;-6.294;2023-12-04T05:08:48;99469.34;;;19.64;11.55
64698;BME280;51124;53.394;-6.294;2023-12-04T05:11:16;99471.47;;;19.14;11.70
64698;BME280;51124;53.394;-6.294;2023-12-04T05:13:44;99471.57;;;19.51;11.60
64698;BME280;51124;53.394;-6.294;2023-12-04T05:16:12;99467.52;;;19.02;11.67
64698;BME280;51124;53.394;-6.294;2023-12-04T05:18:40;99466.88;;;19.54;11.54
64698;BME280;51124;53.394;-6.294;2023-12-04T05:21:10;99465.31;;;18.86;11.69
64698;BME280;51124;53.394;-6.294;2023-12-04T05:23:38;99468.08;;;19.08;11.80
64698;BME280;51124;53.394;-6.294;2023-12-04T05:26:06;99467.43;;;18.66;11.88
64698;BME280;51124;53.394;-6.294;2023-12-04T05:28:34;99466.59;;;18.93;11.98
64698;BME280;51124;53.394;-6.294;2023-12-04T05:31:02;99467.88;;;19.04;11.74
64698;BME280;51124;53.394;-6.294;2023-12-04T05:33:30;99463.26;;;15.64;12.17
64698;BME280;51124;53.394;-6.294;2023-12-04T05:35:57;99467.18;;;14.13;11.82
64698;BME280;51124;53.394;-6.294;2023-12-04T05:38:24;99462.47;;;15.51;11.21
64698;BME280;51124;53.394;-6.294;2023-12-04T05:40:52;99462.75;;;17.19;10.38
64698;BME280;51124;53.394;-6.294;2023-12-04T05:43:19;99468.30;;;16.39;10.35
64698;BME280;51124;53.394;-6.294;2023-12-04T05:45:46;99469.07;;;16.13;10.12
64698;BME280;51124;53.394;-6.294;2023-12-04T05:48:13;99466.40;;;16.94;9.85
64698;BME280;51124;53.394;-6.294;2023-12-04T05:50:41;99472.03;;;15.29;10.16
64698;BME280;51124;53.394;-6.294;2023-12-04T05:53:08;99467.20;;;16.86;9.73
64698;BME280;51124;53.394;-6.294;2023-12-04T05:55:35;99468.36;;;17.33;9.48
64698;BME280;51124;53.394;-6.294;2023-12-04T05:58:03;99474.58;;;16.49;9.56
64698;BME280;51124;53.394;-6.294;2023-12-04T06:00:30;99473.52;;;16.62;9.59
64698;BME280;51124;53.394;-6.294;2023-12-04T06:02:57;99476.22;;;17.63;9.26
64698;BME280;51124;53.394;-6.294;2023-12-04T06:05:24;99474.92;;;16.81;9.32
64698;BME280;51124;53.394;-6.294;2023-12-04T06:07:51;99479.78;;;15.97;9.62
64698;BME280;51124;53.394;-6.294;2023-12-04T06:10:19;99475.70;;;16.66;9.54
64698;BME280;51124;53.394;-6.294;2023-12-04T06:12:46;99476.43;;;17.49;9.37
64698;BME280;51124;53.394;-6.294;2023-12-04T06:15:13;99477.03;;;16.90;9.38
64698;BME280;51124;53.394;-6.294;2023-12-04T06:17:40;99487.49;;;15.69;9.85
64698;BME280;51124;53.394;-6.294;2023-12-04T06:20:09;99474.07;;;16.87;9.38
64698;BME280;51124;53.394;-6.294;2023-12-04T06:22:37;99480.77;;;16.40;9.10
64698;BME280;51124;53.394;-6.294;2023-12-04T06:25:05;99477.28;;;18.21;9.12
64698;BME280;51124;53.394;-6.294;2023-12-04T06:27:33;99480.36;;;15.38;9.40
64698;BME280;51124;53.394;-6.294;2023-12-04T06:30:01;99478.27;;;16.70;9.18
64698;BME280;51124;53.394;-6.294;2023-12-04T06:32:29;99487.19;;;17.41;9.09
64698;BME280;51124;53.394;-6.294;2023-12-04T06:34:57;99489.39;;;15.71;9.58
64698;BME280;51124;53.394;-6.294;2023-12-04T06:37:25;99489.46;;;16.21;9.26
64698;BME280;51124;53.394;-6.294;2023-12-04T06:39:54;99494.50;;;16.14;9.30
64698;BME280;51124;53.394;-6.294;2023-12-04T06:42:24;99489.65;;;17.88;8.90
64698;BME280;51124;53.394;-6.294;2023-12-04T06:44:52;99489.65;;;16.69;9.14
64698;BME280;51124;53.394;-6.294;2023-12-04T06:47:21;99493.91;;;17.06;9.19
64698;BME280;51124;53.394;-6.294;2023-12-04T06:49:49;99491.40;;;16.56;9.29
64698;BME280;51124;53.394;-6.294;2023-12-04T06:52:16;99493.90;;;17.14;8.93
64698;BME280;51124;53.394;-6.294;2023-12-04T06:54:43;99493.73;;;16.96;9.16
64698;BME280;51124;53.394;-6.294;2023-12-04T06:57:10;99495.35;;;17.05;9.31
64698;BME280;51124;53.394;-6.294;2023-12-04T06:59:37;99489.02;;;17.96;9.13
64698;BME280;51124;53.394;-6.294;2023-12-04T07:02:05;99498.70;;;16.78;9.41
64698;BME280;51124;53.394;-6.294;2023-12-04T07:04:32;99499.57;;;14.95;10.00
64698;BME280;51124;53.394;-6.294;2023-12-04T07:06:59;99498.62;;;16.94;9.25
64698;BME280;51124;53.394;-6.294;2023-12-04T07:09:27;99498.34;;;17.55;9.18
64698;BME280;51124;53.394;-6.294;2023-12-04T07:11:54;99497.02;;;17.40;9.38
64698;BME280;51124;53.394;-6.294;2023-12-04T07:14:21;99503.42;;;16.64;9.57
64698;BME280;51124;53.394;-6.294;2023-12-04T07:16:48;99508.10;;;16.06;9.62
64698;BME280;51124;53.394;-6.294;2023-12-04T07:19:16;99496.85;;;16.06;9.05
64698;BME280;51124;53.394;-6.294;2023-12-04T07:21:43;99502.53;;;16.39;9.14
64698;BME280;51124;53.394;-6.294;2023-12-04T07:24:11;99506.84;;;16.86;8.93
64698;BME280;51124;53.394;-6.294;2023-12-04T07:26:38;99500.49;;;18.97;9.24
64698;BME280;51124;53.394;-6.294;2023-12-04T07:29:05;99508.84;;;18.76;9.81
64698;BME280;51124;53.394;-6.294;2023-12-04T07:31:33;99513.69;;;17.64;9.70
64698;BME280;51124;53.394;-6.294;2023-12-04T07:34:00;99511.96;;;18.32;9.83
64698;BME280;51124;53.394;-6.294;2023-12-04T07:36:27;99518.37;;;17.69;10.98
64698;BME280;51124;53.394;-6.294;2023-12-04T07:38:55;99524.35;;;17.73;11.42
64698;BME280;51124;53.394;-6.294;2023-12-04T07:41:23;99517.87;;;19.84;11.01
64698;BME280;51124;53.394;-6.294;2023-12-04T07:43:50;99524.38;;;19.89;10.86
64698;BME280;51124;53.394;-6.294;2023-12-04T07:46:18;99530.25;;;20.21;10.94
64698;BME280;51124;53.394;-6.294;2023-12-04T07:48:45;99525.06;;;19.26;11.20
64698;BME280;51124;53.394;-6.294;2023-12-04T07:51:13;99525.73;;;19.76;11.24
64698;BME280;51124;53.394;-6.294;2023-12-04T07:53:40;99526.45;;;19.47;11.07
64698;BME280;51124;53.394;-6.294;2023-12-04T07:56:09;99534.16;;;20.56;11.13
64698;BME280;51124;53.394;-6.294;2023-12-04T07:58:36;99532.63;;;20.74;10.97
64698;BME280;51124;53.394;-6.294;2023-12-04T08:01:04;99534.71;;;20.64;11.15
64698;BME280;51124;53.394;-6.294;2023-12-04T08:03:31;99541.60;;;19.65;11.34
64698;BME280;51124;53.394;-6.294;2023-12-04T08:05:59;99539.57;;;19.94;11.07
64698;BME280;51124;53.394;-6.294;2023-12-04T08:08:26;99542.13;;;20.35;10.99
64698;BME280;51124;53.394;-6.294;2023-12-04T08:10:54;99541.39;;;20.55;11.02
64698;BME280;51124;53.394;-6.294;2023-12-04T08:13:21;99539.42;;;20.17;11.14
64698;BME280;51124;53.394;-6.294;2023-12-04T08:15:48;99542.67;;;20.68;10.96
64698;BME280;51124;53.394;-6.294;2023-12-04T08:18:16;99540.98;;;20.21;11.15
64698;BME280;51124;53.394;-6.294;2023-12-04T08:20:44;99545.05;;;20.31;11.05
64698;BME280;51124;53.394;-6.294;2023-12-04T08:23:12;99546.54;;;20.23;11.05
64698;BME280;51124;53.394;-6.294;2023-12-04T08:25:39;99552.80;;;18.38;11.20
64698;BME280;51124;53.394;-6.294;2023-12-04T08:28:06;99554.74;;;17.79;10.68
64698;BME280;51124;53.394;-6.294;2023-12-04T08:30:33;99554.43;;;17.61;10.36
64698;BME280;51124;53.394;-6.294;2023-12-04T08:33:00;99555.06;;;18.05;9.79
64698;BME280;51124;53.394;-6.294;2023-12-04T08:35:28;99566.21;;;19.16;9.64
64698;BME280;51124;53.394;-6.294;2023-12-04T08:37:55;99564.39;;;18.73;9.56
64698;BME280;51124;53.394;-6.294;2023-12-04T08:40:22;99559.33;;;18.23;9.30
64698;BME280;51124;53.394;-6.294;2023-12-04T08:42:50;99561.46;;;19.44;9.10
64698;BME280;51124;53.394;-6.294;2023-12-04T08:45:17;99565.82;;;17.96;9.16
64698;BME280;51124;53.394;-6.294;2023-12-04T08:47:46;99566.15;;;18.51;9.10
64698;BME280;51124;53.394;-6.294;2023-12-04T08:50:13;99570.40;;;18.94;9.07
64698;BME280;51124;53.394;-6.294;2023-12-04T08:52:40;99572.92;;;18.20;9.11
64698;BME280;51124;53.394;-6.294;2023-12-04T08:55:08;99569.67;;;18.96;9.02
64698;BME280;51124;53.394;-6.294;2023-12-04T08:57:35;99566.65;;;18.81;8.90
64698;BME280;51124;53.394;-6.294;2023-12-04T09:00:03;99562.49;;;18.47;8.93
64698;BME280;51124;53.394;-6.294;2023-12-04T09:02:30;99566.20;;;18.86;8.84
64698;BME280;51124;53.394;-6.294;2023-12-04T09:04:58;99564.77;;;18.57;8.99
64698;BME280;51124;53.394;-6.294;2023-12-04T09:07:25;99571.82;;;18.67;8.82
64698;BME280;51124;53.394;-6.294;2023-12-04T09:09:52;99573.78;;;18.92;8.89
64698;BME280;51124;53.394;-6.294;2023-12-04T09:12:19;99577.42;;;18.37;8.80
64698;BME280;51124;53.394;-6.294;2023-12-04T09:14:47;99571.48;;;18.56;8.75
64698;BME280;51124;53.394;-6.294;2023-12-04T09:17:14;99577.14;;;17.33;8.94
64698;BME280;51124;53.394;-6.294;2023-12-04T09:19:42;99576.01;;;19.01;8.70
64698;BME280;51124;53.394;-6.294;2023-12-04T09:22:09;99571.88;;;17.81;8.69
64698;BME280;51124;53.394;-6.294;2023-12-04T09:24:36;99585.43;;;17.26;8.96
64698;BME280;51124;53.394;-6.294;2023-12-04T09:27:04;99580.04;;;17.51;8.84
64698;BME280;51124;53.394;-6.294;2023-12-04T09:29:31;99582.94;;;18.11;8.66
64698;BME280;51124;53.394;-6.294;2023-12-04T09:31:58;99586.93;;;18.30;8.76
64698;BME280;51124;53.394;-6.294;2023-12-04T09:34:26;99588.28;;;18.12;8.87
64698;BME280;51124;53.394;-6.294;2023-12-04T09:36:53;99582.94;;;18.25;8.74
64698;BME280;51124;53.394;-6.294;2023-12-04T09:39:20;99585.76;;;18.21;8.82
64698;BME280;51124;53.394;-6.294;2023-12-04T09:41:48;99575.69;;;18.47;8.59
64698;BME280;51124;53.394;-6.294;2023-12-04T09:44:16;99575.85;;;17.55;8.94
64698;BME280;51124;53.394;-6.294;2023-12-04T09:46:44;99587.22;;;17.82;8.86
64698;BME280;51124;53.394;-6.294;2023-12-04T09:49:12;99585.37;;;17.25;9.03
64698;BME280;51124;53.394;-6.294;2023-12-04T09:51:43;99588.86;;;16.19;9.38
64698;BME280;51124;53.394;-6.294;2023-12-04T09:54:11;99595.89;;;14.40;10.41
64698;BME280;51124;53.394;-6.294;2023-12-04T09:56:39;99596.26;;;15.28;10.08
64698;BME280;51124;53.394;-6.294;2023-12-04T09:59:07;99596.67;;;15.65;9.97
64698;BME280;51124;53.394;-6.294;2023-12-04T10:01:35;99601.76;;;13.41;11.10
64698;BME280;51124;53.394;-6.294;2023-12-04T10:04:04;99605.84;;;14.45;10.54
64698;BME280;51124;53.394;-6.294;2023-12-04T10:06:31;99605.61;;;13.96;10.71
64698;BME280;51124;53.394;-6.294;2023-12-04T10:09:00;99608.40;;;13.42;10.88
64698;BME280;51124;53.394;-6.294;2023-12-04T10:11:27;99613.44;;;12.42;11.27
64698;BME280;51124;53.394;-6.294;2023-12-04T10:13:55;99618.35;;;12.73;10.91
64698;BME280;51124;53.394;-6.294;2023-12-04T10:16:38;99628.62;;;13.24;10.65
64698;BME280;51124;53.394;-6.294;2023-12-04T10:18:55;99625.86;;;14.19;10.67
64698;BME280;51124;53.394;-6.294;2023-12-04T10:21:23;99626.92;;;15.49;9.65
64698;BME280;51124;53.394;-6.294;2023-12-04T10:23:50;99633.69;;;15.37;10.98
64698;BME280;51124;53.394;-6.294;2023-12-04T10:26:17;99630.10;;;16.53;11.02
64698;BME280;51124;53.394;-6.294;2023-12-04T10:29:00;99639.51;;;13.74;11.41
64698;BME280;51124;53.394;-6.294;2023-12-04T10:31:19;99641.31;;;16.64;11.29
64698;BME280;51124;53.394;-6.294;2023-12-04T10:33:47;99639.94;;;17.33;11.39
64698;BME280;51124;53.394;-6.294;2023-12-04T10:36:15;99641.43;;;21.07;10.42
64698;BME280;51124;53.394;-6.294;2023-12-04T10:38:42;99639.87;;;17.17;11.90
64698;BME280;51124;53.394;-6.294;2023-12-04T10:41:14;99636.93;;;17.36;12.13
64698;BME280;51124;53.394;-6.294;2023-12-04T10:43:48;99631.12;;;17.21;12.10
64698;BME280;51124;53.394;-6.294;2023-12-04T10:46:16;99633.60;;;16.77;12.40
64698;BME280;51124;53.394;-6.294;2023-12-04T10:48:47;99629.69;;;17.03;12.50
64698;BME280;51124;53.394;-6.294;2023-12-04T10:51:15;99644.58;;;16.74;12.65
64698;BME280;51124;53.394;-6.294;2023-12-04T10:53:43;99646.83;;;16.43;13.08
64698;BME280;51124;53.394;-6.294;2023-12-04T10:56:14;99634.61;;;17.81;12.26
64698;BME280;51124;53.394;-6.294;2023-12-04T10:58:46;99635.64;;;18.38;12.18
64698;BME280;51124;53.394;-6.294;2023-12-04T11:01:16;99635.95;;;16.82;12.47
64698;BME280;51124;53.394;-6.294;2023-12-04T11:03:47;99641.14;;;17.59;12.45
64698;BME280;51124;53.394;-6.294;2023-12-04T11:06:17;99637.05;;;17.39;12.39
64698;BME280;51124;53.394;-6.294;2023-12-04T11:08:48;99636.77;;;18.90;11.95
64698;BME280;51124;53.394;-6.294;2023-12-04T11:11:18;99639.31;;;18.46;11.89
64698;BME280;51124;53.394;-6.294;2023-12-04T11:13:52;99631.15;;;17.60;12.24
64698;BME280;51124;53.394;-6.294;2023-12-04T11:16:26;99645.02;;;17.28;12.42
64698;BME280;51124;53.394;-6.294;2023-12-04T11:18:59;99636.36;;;18.18;12.20
64698;BME280;51124;53.394;-6.294;2023-12-04T11:21:28;99639.61;;;16.26;12.69
64698;BME280;51124;53.394;-6.294;2023-12-04T11:23:56;99641.85;;;13.96;12.70
64698;BME280;51124;53.394;-6.294;2023-12-04T11:26:24;99642.68;;;14.10;12.32
64698;BME280;51124;53.394;-6.294;2023-12-04T11:28:51;99642.02;;;15.64;11.43
64698;BME280;51124;53.394;-6.294;2023-12-04T11:31:19;99641.40;;;15.72;11.49
64698;BME280;51124;53.394;-6.294;2023-12-04T11:33:47;99645.44;;;16.62;10.74
64698;BME280;51124;53.394;-6.294;2023-12-04T11:36:14;99642.17;;;16.56;10.34
64698;BME280;51124;53.394;-6.294;2023-12-04T11:38:46;99641.10;;;16.16;10.33
64698;BME280;51124;53.394;-6.294;2023-12-04T11:41:19;99638.01;;;16.88;9.81
64698;BME280;51124;53.394;-6.294;2023-12-04T11:43:47;99637.86;;;14.43;10.51
64698;BME280;51124;53.394;-6.294;2023-12-04T11:46:18;99638.97;;;15.15;10.33
64698;BME280;51124;53.394;-6.294;2023-12-04T11:48:47;99633.49;;;17.90;8.32
64698;BME280;51124;53.394;-6.294;2023-12-04T11:51:45;99633.05;;;16.98;9.49
64698;BME280;51124;53.394;-6.294;2023-12-04T11:53:42;99643.53;;;16.93;9.53
64698;BME280;51124;53.394;-6.294;2023-12-04T11:56:12;99631.37;;;16.87;9.35
64698;BME280;51124;53.394;-6.294;2023-12-04T11:58:44;99636.01;;;15.67;9.70
64698;BME280;51124;53.394;-6.294;2023-12-04T12:01:12;99639.74;;;15.67;9.68
64698;BME280;51124;53.394;-6.294;2023-12-04T12:03:39;99629.29;;;18.07;7.52
64698;BME280;51124;53.394;-6.294;2023-12-04T12:06:07;99622.90;;;17.68;8.76
64698;BME280;51124;53.394;-6.294;2023-12-04T12:08:49;99622.89;;;18.23;8.65
64698;BME280;51124;53.394;-6.294;2023-12-04T12:11:07;99628.89;;;17.71;8.51
64698;BME280;51124;53.394;-6.294;2023-12-04T12:13:34;99634.34;;;16.80;9.06
64698;BME280;51124;53.394;-6.294;2023-12-04T12:16:02;99637.30;;;17.28;9.01
64698;BME280;51124;53.394;-6.294;2023-12-04T12:18:29;99637.70;;;16.95;8.90
64698;BME280;51124;53.394;-6.294;2023-12-04T12:20:56;99638.90;;;16.16;9.13
64698;BME280;51124;53.394;-6.294;2023-12-04T12:23:25;99637.00;;;18.38;7.27
64698;BME280;51124;53.394;-6.294;2023-12-04T12:25:52;99645.65;;;17.68;7.41
64698;BME280;51124;53.394;-6.294;2023-12-04T12:28:20;99643.48;;;17.94;7.69
64698;BME280;51124;53.394;-6.294;2023-12-04T12:30:47;99649.78;;;16.34;8.21
64698;BME280;51124;53.394;-6.294;2023-12-04T12:33:15;99651.55;;;18.39;7.85
64698;BME280;51124;53.394;-6.294;2023-12-04T12:35:42;99668.08;;;16.67;8.87
64698;BME280;51124;53.394;-6.294;2023-12-04T12:38:10;99656.61;;;17.14;8.62
64698;BME280;51124;53.394;-6.294;2023-12-04T12:40:37;99657.08;;;18.12;8.31
64698;BME280;51124;53.394;-6.294;2023-12-04T12:43:06;99660.97;;;16.75;8.63
64698;BME280;51124;53.394;-6.294;2023-12-04T12:45:40;99660.70;;;17.09;8.73
64698;BME280;51124;53.394;-6.294;2023-12-04T12:48:10;99659.86;;;17.44;8.64
64698;BME280;51124;53.394;-6.294;2023-12-04T12:50:37;99658.80;;;16.54;8.97
64698;BME280;51124;53.394;-6.294;2023-12-04T12:53:04;99659.58;;;16.89;8.88
64698;BME280;51124;53.394;-6.294;2023-12-04T12:55:32;99655.41;;;18.12;8.61
64698;BME280;51124;53.394;-6.294;2023-12-04T12:57:59;99653.56;;;18.77;8.50